sensor_id;sensor_type;location;lat;lon;timestamp;pressure;altitude;pressure_sealevel;temperature;humidity
34124;BME280;13153;52.316;21.166;2024-03-08T00:00:11;101308.75;;;4.15;54.98
34124;BME280;13153;52.316;21.166;2024-03-08T00:02:41;101325.06;;;4.12;55.09
34124;BME280;13153;52.316;21.166;2024-03-08T00:05:08;101304.22;;;4.12;54.92
34124;BME280;13153;52.316;21.166;2024-03-08T00:07:35;101298.13;;;4.12;55.52
34124;BME280;13153;52.316;21.166;2024-03-08T00:10:06;101298.00;;;4.10;54.96
34124;BME280;13153;52.316;21.166;2024-03-08T00:12:33;101298.13;;;4.12;54.85
34124;BME280;13153;52.316;21.166;2024-03-08T00:14:58;101296.63;;;4.15;55.00
34124;BME280;13153;52.316;21.166;2024-03-08T00:17:24;101292.09;;;4.13;55.42
34124;BME280;13153;52.316;21.166;2024-03-08T00:19:53;101296.03;;;4.19;54.68
34124;BME280;13153;52.316;21.166;2024-03-08T00:22:18;101298.03;;;4.23;55.20
34124;BME280;13153;52.316;21.166;2024-03-08T00:24:44;101292.63;;;4.20;54.90
34124;BME280;13153;52.316;21.166;2024-03-08T00:27:11;101295.81;;;4.16;54.81
34124;BME280;13153;52.316;21.166;2024-03-08T00:29:37;101297.22;;;4.11;55.50
34124;BME280;13153;52.316;21.166;2024-03-08T00:32:06;101292.72;;;4.09;54.94
34124;BME280;13153;52.316;21.166;2024-03-08T00:34:35;101289.91;;;4.06;54.85
34124;BME280;13153;52.316;21.166;2024-03-08T00:37:03;101292.72;;;4.09;55.03
34124;BME280;13153;52.316;21.166;2024-03-08T00:39:29;101290.50;;;4.15;55.30
34124;BME280;13153;52.316;21.166;2024-03-08T00:41:55;101288.81;;;4.15;55.82
34124;BME280;13153;52.316;21.166;2024-03-08T00:44:21;101288.28;;;4.08;56.00
34124;BME280;13153;52.316;21.166;2024-03-08T00:46:46;101289.09;;;4.07;55.72
34124;BME280;13153;52.316;21.166;2024-03-08T00:49:12;101286.22;;;4.02;55.40
34124;BME280;13153;52.316;21.166;2024-03-08T00:51:38;101281.59;;;3.98;55.70
34124;BME280;13153;52.316;21.166;2024-03-08T00:54:04;101289.91;;;3.92;55.47
34124;BME280;13153;52.316;21.166;2024-03-08T00:56:30;101284.50;;;3.89;56.01
34124;BME280;13153;52.316;21.166;2024-03-08T00:58:55;101282.78;;;3.90;55.81
34124;BME280;13153;52.316;21.166;2024-03-08T01:01:22;101284.38;;;3.88;55.65
34124;BME280;13153;52.316;21.166;2024-03-08T01:03:47;101281.78;;;3.88;56.13
34124;BME280;13153;52.316;21.166;2024-03-08T01:06:14;101278.97;;;3.85;55.91
34124;BME280;13153;52.316;21.166;2024-03-08T01:08:40;101280.38;;;3.80;55.83
34124;BME280;13153;52.316;21.166;2024-03-08T01:11:08;101287.16;;;3.78;55.91
34124;BME280;13153;52.316;21.166;2024-03-08T01:13:37;101280.94;;;3.76;55.69
34124;BME280;13153;52.316;21.166;2024-03-08T01:16:03;101271.22;;;3.73;55.55
34124;BME280;13153;52.316;21.166;2024-03-08T01:18:29;101278.03;;;3.71;55.54
34124;BME280;13153;52.316;21.166;2024-03-08T01:20:55;101272.84;;;3.71;55.94
34124;BME280;13153;52.316;21.166;2024-03-08T01:23:21;101268.31;;;3.69;55.90
34124;BME280;13153;52.316;21.166;2024-03-08T01:25:46;101270.03;;;3.68;55.72
34124;BME280;13153;52.316;21.166;2024-03-08T01:28:14;101268.22;;;3.67;55.46
34124;BME280;13153;52.316;21.166;2024-03-08T01:30:40;101262.81;;;3.64;55.69
34124;BME280;13153;52.316;21.166;2024-03-08T01:33:08;101258.41;;;3.63;55.85
34124;BME280;13153;52.316;21.166;2024-03-08T01:35:34;101261.00;;;3.63;55.74
34124;BME280;13153;52.316;21.166;2024-03-08T01:37:59;101264.19;;;3.59;56.04
34124;BME280;13153;52.316;21.166;2024-03-08T01:40:25;101260.69;;;3.58;55.90
34124;BME280;13153;52.316;21.166;2024-03-08T01:42:51;101263.88;;;3.54;56.23
34124;BME280;13153;52.316;21.166;2024-03-08T01:45:18;101261.06;;;3.51;56.12
34124;BME280;13153;52.316;21.166;2024-03-08T01:47:45;101262.97;;;3.54;55.60
34124;BME280;13153;52.316;21.166;2024-03-08T01:50:13;101259.25;;;3.50;55.81
34124;BME280;13153;52.316;21.166;2024-03-08T01:52:39;101261.75;;;3.49;56.04
34124;BME280;13153;52.316;21.166;2024-03-08T01:55:06;101262.66;;;3.49;56.11
34124;BME280;13153;52.316;21.166;2024-03-08T01:57:35;101257.34;;;3.48;55.44
34124;BME280;13153;52.316;21.166;2024-03-08T02:00:04;101253.94;;;3.49;55.73
34124;BME280;13153;52.316;21.166;2024-03-08T02:02:32;101255.47;;;3.45;55.42
34124;BME280;13153;52.316;21.166;2024-03-08T02:05:01;101252.66;;;3.42;55.89
34124;BME280;13153;52.316;21.166;2024-03-08T02:07:27;101249.16;;;3.42;55.88
34124;BME280;13153;52.316;21.166;2024-03-08T02:09:52;101251.66;;;3.40;55.50
34124;BME280;13153;52.316;21.166;2024-03-08T02:12:20;101252.13;;;3.35;55.08
34124;BME280;13153;52.316;21.166;2024-03-08T02:14:46;101242.41;;;3.32;55.87
34124;BME280;13153;52.316;21.166;2024-03-08T02:17:12;101237.09;;;3.30;55.85
34124;BME280;13153;52.316;21.166;2024-03-08T02:19:38;101237.00;;;3.29;55.17
34124;BME280;13153;52.316;21.166;2024-03-08T02:22:05;101233.28;;;3.25;55.47
34124;BME280;13153;52.316;21.166;2024-03-08T02:24:32;101240.28;;;3.26;55.52
34124;BME280;13153;52.316;21.166;2024-03-08T02:26:59;101238.47;;;3.25;55.70
34124;BME280;13153;52.316;21.166;2024-03-08T02:29:25;101236.78;;;3.26;55.86
34124;BME280;13153;52.316;21.166;2024-03-08T02:31:51;101243.59;;;3.24;55.87
34124;BME280;13153;52.316;21.166;2024-03-08T02:34:17;101236.56;;;3.23;55.73
34124;BME280;13153;52.316;21.166;2024-03-08T02:36:43;101234.66;;;3.20;55.75
34124;BME280;13153;52.316;21.166;2024-03-08T02:39:09;101236.03;;;3.15;55.41
34124;BME280;13153;52.316;21.166;2024-03-08T02:41:36;101241.25;;;3.15;55.08
34124;BME280;13153;52.316;21.166;2024-03-08T02:44:02;101235.03;;;3.13;55.76
34124;BME280;13153;52.316;21.166;2024-03-08T02:46:29;101232.22;;;3.10;55.40
34124;BME280;13153;52.316;21.166;2024-03-08T02:48:56;101231.31;;;3.10;56.08
34124;BME280;13153;52.316;21.166;2024-03-08T02:51:22;101234.72;;;3.09;56.07
34124;BME280;13153;52.316;21.166;2024-03-08T02:53:48;101228.41;;;3.05;55.63
34124;BME280;13153;52.316;21.166;2024-03-08T02:56:17;101217.19;;;3.06;55.85
34124;BME280;13153;52.316;21.166;2024-03-08T02:58:43;101221.38;;;3.04;55.40
34124;BME280;13153;52.316;21.166;2024-03-08T03:01:14;101227.28;;;3.02;56.00
34124;BME280;13153;52.316;21.166;2024-03-08T03:03:41;101228.75;;;2.98;55.60
34124;BME280;13153;52.316;21.166;2024-03-08T03:06:08;101225.25;;;2.97;55.21
34124;BME280;13153;52.316;21.166;2024-03-08T03:08:33;101221.53;;;2.94;55.56
34124;BME280;13153;52.316;21.166;2024-03-08T03:10:59;101226.34;;;2.88;55.41
34124;BME280;13153;52.316;21.166;2024-03-08T03:13:25;101222.84;;;2.87;55.86
34124;BME280;13153;52.316;21.166;2024-03-08T03:15:50;101221.81;;;2.85;55.39
34124;BME280;13153;52.316;21.166;2024-03-08T03:18:17;101226.13;;;2.85;55.93
34124;BME280;13153;52.316;21.166;2024-03-08T03:20:46;101215.84;;;2.86;55.70
34124;BME280;13153;52.316;21.166;2024-03-08T03:23:12;101229.63;;;2.85;55.41
34124;BME280;13153;52.316;21.166;2024-03-08T03:25:39;101224.22;;;2.82;55.58
34124;BME280;13153;52.316;21.166;2024-03-08T03:28:06;101218.91;;;2.81;54.94
34124;BME280;13153;52.316;21.166;2024-03-08T03:30:33;101228.19;;;2.77;54.79
34124;BME280;13153;52.316;21.166;2024-03-08T03:33:02;101221.28;;;2.78;54.94
34124;BME280;13153;52.316;21.166;2024-03-08T03:35:32;101221.66;;;2.71;54.99
34124;BME280;13153;52.316;21.166;2024-03-08T03:37:59;101226.63;;;2.68;55.67
34124;BME280;13153;52.316;21.166;2024-03-08T03:40:37;101222.91;;;2.64;55.60
34124;BME280;13153;52.316;21.166;2024-03-08T03:43:03;101218.38;;;2.61;54.84
34124;BME280;13153;52.316;21.166;2024-03-08T03:45:29;101221.56;;;2.57;55.08
34124;BME280;13153;52.316;21.166;2024-03-08T03:47:59;101216.03;;;2.53;55.57
34124;BME280;13153;52.316;21.166;2024-03-08T03:50:26;101215.13;;;2.52;55.41
34124;BME280;13153;52.316;21.166;2024-03-08T03:52:51;101217.63;;;2.51;54.82
34124;BME280;13153;52.316;21.166;2024-03-08T03:55:17;101218.88;;;2.44;55.57
34124;BME280;13153;52.316;21.166;2024-03-08T03:57:43;101217.97;;;2.44;55.05
34124;BME280;13153;52.316;21.166;2024-03-08T04:00:11;101215.94;;;2.51;55.93
34124;BME280;13153;52.316;21.166;2024-03-08T04:02:41;101206.44;;;2.52;55.08
34124;BME280;13153;52.316;21.166;2024-03-08T04:05:08;101210.84;;;2.53;54.74
34124;BME280;13153;52.316;21.166;2024-03-08T04:07:35;101208.81;;;2.49;54.70
34124;BME280;13153;52.316;21.166;2024-03-08T04:10:03;101207.13;;;2.49;55.35
34124;BME280;13153;52.316;21.166;2024-03-08T04:12:32;101202.59;;;2.47;55.39
34124;BME280;13153;52.316;21.166;2024-03-08T04:14:58;101206.31;;;2.50;55.13
34124;BME280;13153;52.316;21.166;2024-03-08T04:17:24;101204.53;;;2.49;54.78
34124;BME280;13153;52.316;21.166;2024-03-08T04:19:50;101199.78;;;2.44;55.13
34124;BME280;13153;52.316;21.166;2024-03-08T04:22:16;101201.25;;;2.40;55.03
34124;BME280;13153;52.316;21.166;2024-03-08T04:24:46;101208.38;;;2.43;55.23
34124;BME280;13153;52.316;21.166;2024-03-08T04:27:13;101197.75;;;2.40;55.28
34124;BME280;13153;52.316;21.166;2024-03-08T04:29:39;101196.84;;;2.39;54.88
34124;BME280;13153;52.316;21.166;2024-03-08T04:32:06;101207.25;;;2.39;55.31
34124;BME280;13153;52.316;21.166;2024-03-08T04:34:34;101208.16;;;2.40;55.47
34124;BME280;13153;52.316;21.166;2024-03-08T04:37:01;101202.97;;;2.40;54.99
34124;BME280;13153;52.316;21.166;2024-03-08T04:39:27;101205.56;;;2.40;54.89
34124;BME280;13153;52.316;21.166;2024-03-08T04:41:56;101202.63;;;2.35;55.17
34124;BME280;13153;52.316;21.166;2024-03-08T04:44:24;101208.41;;;2.31;55.40
34124;BME280;13153;52.316;21.166;2024-03-08T04:46:50;101207.81;;;2.35;54.80
34124;BME280;13153;52.316;21.166;2024-03-08T04:49:16;101203.72;;;2.50;55.99
34124;BME280;13153;52.316;21.166;2024-03-08T04:51:42;101208.00;;;2.61;55.71
34124;BME280;13153;52.316;21.166;2024-03-08T04:54:08;101204.38;;;2.59;55.10
34124;BME280;13153;52.316;21.166;2024-03-08T04:56:33;101208.34;;;2.54;54.53
34124;BME280;13153;52.316;21.166;2024-03-08T04:58:59;101204.28;;;2.58;54.66
34124;BME280;13153;52.316;21.166;2024-03-08T05:01:25;101200.75;;;2.69;54.33
34124;BME280;13153;52.316;21.166;2024-03-08T05:03:51;101201.91;;;2.61;54.08
34124;BME280;13153;52.316;21.166;2024-03-08T05:06:20;101199.66;;;2.54;54.08
34124;BME280;13153;52.316;21.166;2024-03-08T05:08:46;101203.84;;;2.52;54.28
34124;BME280;13153;52.316;21.166;2024-03-08T05:11:12;101201.03;;;2.49;53.84
34124;BME280;13153;52.316;21.166;2024-03-08T05:13:40;101203.28;;;2.44;54.16
34124;BME280;13153;52.316;21.166;2024-03-08T05:16:06;101201.94;;;2.49;53.99
34124;BME280;13153;52.316;21.166;2024-03-08T05:18:33;101198.19;;;2.46;54.12
34124;BME280;13153;52.316;21.166;2024-03-08T05:20:59;101203.47;;;2.59;54.06
34124;BME280;13153;52.316;21.166;2024-03-08T05:23:25;101205.91;;;2.81;54.18
34124;BME280;13153;52.316;21.166;2024-03-08T05:25:51;101195.97;;;3.00;53.85
34124;BME280;13153;52.316;21.166;2024-03-08T05:28:16;101208.88;;;3.23;53.28
34124;BME280;13153;52.316;21.166;2024-03-08T05:30:42;101212.63;;;3.40;52.96
34124;BME280;13153;52.316;21.166;2024-03-08T05:33:08;101207.94;;;3.61;52.22
34124;BME280;13153;52.316;21.166;2024-03-08T05:35:39;101200.38;;;3.77;51.46
34124;BME280;13153;52.316;21.166;2024-03-08T05:38:05;101196.78;;;4.02;51.46
34124;BME280;13153;52.316;21.166;2024-03-08T05:40:32;101205.56;;;4.30;51.12
34124;BME280;13153;52.316;21.166;2024-03-08T05:42:59;101196.22;;;4.60;50.73
34124;BME280;13153;52.316;21.166;2024-03-08T05:45:27;101192.78;;;4.89;49.87
34124;BME280;13153;52.316;21.166;2024-03-08T05:47:53;101195.00;;;5.11;49.42
34124;BME280;13153;52.316;21.166;2024-03-08T05:50:19;101201.88;;;5.38;48.62
34124;BME280;13153;52.316;21.166;2024-03-08T05:52:45;101193.09;;;5.66;48.47
34124;BME280;13153;52.316;21.166;2024-03-08T05:55:11;101196.25;;;5.89;47.51
34124;BME280;13153;52.316;21.166;2024-03-08T05:57:40;101196.28;;;6.20;47.33
34124;BME280;13153;52.316;21.166;2024-03-08T06:00:09;101192.50;;;6.46;46.98
34124;BME280;13153;52.316;21.166;2024-03-08T06:02:38;101186.28;;;6.75;46.63
34124;BME280;13153;52.316;21.166;2024-03-08T06:05:09;101193.88;;;7.03;46.62
34124;BME280;13153;52.316;21.166;2024-03-08T06:07:37;101192.88;;;7.34;45.22
34124;BME280;13153;52.316;21.166;2024-03-08T06:10:10;101196.81;;;7.59;45.09
34124;BME280;13153;52.316;21.166;2024-03-08T06:12:36;101193.06;;;7.88;45.32
34124;BME280;13153;52.316;21.166;2024-03-08T06:15:09;101195.59;;;8.22;44.76
34124;BME280;13153;52.316;21.166;2024-03-08T06:17:38;101198.03;;;8.53;44.50
34124;BME280;13153;52.316;21.166;2024-03-08T06:20:04;101197.94;;;8.89;43.56
34124;BME280;13153;52.316;21.166;2024-03-08T06:22:39;101203.69;;;9.19;43.44
34124;BME280;13153;52.316;21.166;2024-03-08T06:25:08;101203.50;;;9.54;42.80
34124;BME280;13153;52.316;21.166;2024-03-08T06:27:36;101205.75;;;9.66;42.13
34124;BME280;13153;52.316;21.166;2024-03-08T06:30:03;101197.03;;;9.88;41.78
34124;BME280;13153;52.316;21.166;2024-03-08T06:32:30;101198.19;;;10.15;41.66
34124;BME280;13153;52.316;21.166;2024-03-08T06:35:01;101201.06;;;10.42;41.05
34124;BME280;13153;52.316;21.166;2024-03-08T06:37:28;101200.53;;;10.73;40.73
34124;BME280;13153;52.316;21.166;2024-03-08T06:39:53;101201.13;;;10.88;40.44
34124;BME280;13153;52.316;21.166;2024-03-08T06:42:20;101200.66;;;11.00;40.10
34124;BME280;13153;52.316;21.166;2024-03-08T06:44:46;101204.97;;;10.98;40.11
34124;BME280;13153;52.316;21.166;2024-03-08T06:47:17;101204.78;;;11.16;39.89
34124;BME280;13153;52.316;21.166;2024-03-08T06:49:43;101205.25;;;11.28;39.69
34124;BME280;13153;52.316;21.166;2024-03-08T06:52:12;101209.72;;;11.31;39.62
34124;BME280;13153;52.316;21.166;2024-03-08T06:54:38;101199.13;;;11.53;39.68
34124;BME280;13153;52.316;21.166;2024-03-08T06:57:04;101200.09;;;11.80;39.56
34124;BME280;13153;52.316;21.166;2024-03-08T06:59:31;101201.63;;;11.99;39.50
34124;BME280;13153;52.316;21.166;2024-03-08T07:01:57;101199.09;;;12.02;38.97
34124;BME280;13153;52.316;21.166;2024-03-08T07:04:25;101198.88;;;12.23;39.10
34124;BME280;13153;52.316;21.166;2024-03-08T07:06:55;101200.22;;;12.37;38.95
34124;BME280;13153;52.316;21.166;2024-03-08T07:09:23;101195.41;;;12.51;38.03
34124;BME280;13153;52.316;21.166;2024-03-08T07:11:50;101194.78;;;12.60;38.07
34124;BME280;13153;52.316;21.166;2024-03-08T07:14:22;101197.78;;;12.70;38.43
34124;BME280;13153;52.316;21.166;2024-03-08T07:16:48;101200.72;;;12.81;37.59
34124;BME280;13153;52.316;21.166;2024-03-08T07:19:14;101194.56;;;12.82;38.24
34124;BME280;13153;52.316;21.166;2024-03-08T07:21:41;101197.41;;;12.88;37.89
34124;BME280;13153;52.316;21.166;2024-03-08T07:24:07;101193.69;;;12.81;37.53
34124;BME280;13153;52.316;21.166;2024-03-08T07:26:45;101192.13;;;12.88;37.61
34124;BME280;13153;52.316;21.166;2024-03-08T07:29:15;101198.00;;;13.08;36.38
34124;BME280;13153;52.316;21.166;2024-03-08T07:31:41;101188.50;;;13.14;36.06
34124;BME280;13153;52.316;21.166;2024-03-08T07:34:07;101196.69;;;13.22;36.24
34124;BME280;13153;52.316;21.166;2024-03-08T07:36:34;101189.75;;;13.26;36.59
34124;BME280;13153;52.316;21.166;2024-03-08T07:39:02;101185.41;;;13.29;36.36
34124;BME280;13153;52.316;21.166;2024-03-08T07:41:31;101190.97;;;13.38;36.30
34124;BME280;13153;52.316;21.166;2024-03-08T07:43:56;101187.28;;;13.33;36.27
34124;BME280;13153;52.316;21.166;2024-03-08T07:46:22;101188.94;;;13.28;35.76
34124;BME280;13153;52.316;21.166;2024-03-08T07:48:48;101184.69;;;13.35;35.81
34124;BME280;13153;52.316;21.166;2024-03-08T07:51:16;101188.22;;;13.35;35.42
34124;BME280;13153;52.316;21.166;2024-03-08T07:53:43;101183.16;;;13.43;34.90
34124;BME280;13153;52.316;21.166;2024-03-08T07:56:10;101172.91;;;13.55;34.78
34124;BME280;13153;52.316;21.166;2024-03-08T07:58:39;101176.75;;;13.66;34.31
34124;BME280;13153;52.316;21.166;2024-03-08T08:01:06;101176.19;;;13.78;34.13
34124;BME280;13153;52.316;21.166;2024-03-08T08:03:32;101180.00;;;13.91;34.75
34124;BME280;13153;52.316;21.166;2024-03-08T08:05:58;101169.91;;;13.74;34.67
34124;BME280;13153;52.316;21.166;2024-03-08T08:08:24;101176.97;;;13.74;34.51
34124;BME280;13153;52.316;21.166;2024-03-08T08:10:51;101177.97;;;13.79;34.30
34124;BME280;13153;52.316;21.166;2024-03-08T08:13:17;101179.03;;;13.87;34.70
34124;BME280;13153;52.316;21.166;2024-03-08T08:15:43;101178.41;;;13.97;34.57
34124;BME280;13153;52.316;21.166;2024-03-08T08:18:09;101169.81;;;14.06;34.38
34124;BME280;13153;52.316;21.166;2024-03-08T08:20:35;101172.38;;;14.03;34.75
34124;BME280;13153;52.316;21.166;2024-03-08T08:23:01;101167.00;;;14.00;34.88
34124;BME280;13153;52.316;21.166;2024-03-08T08:25:27;101168.81;;;14.01;35.05
34124;BME280;13153;52.316;21.166;2024-03-08T08:27:52;101169.06;;;14.11;34.58
34124;BME280;13153;52.316;21.166;2024-03-08T08:30:19;101174.75;;;14.27;34.35
34124;BME280;13153;52.316;21.166;2024-03-08T08:32:46;101165.34;;;14.39;33.96
34124;BME280;13153;52.316;21.166;2024-03-08T08:35:12;101165.59;;;14.50;33.69
34124;BME280;13153;52.316;21.166;2024-03-08T08:37:41;101164.03;;;14.58;32.96
34124;BME280;13153;52.316;21.166;2024-03-08T08:40:08;101163.81;;;14.13;30.60
34124;BME280;13153;52.316;21.166;2024-03-08T08:42:40;101157.22;;;13.61;31.30
34124;BME280;13153;52.316;21.166;2024-03-08T08:45:08;101152.31;;;13.43;32.46
34124;BME280;13153;52.316;21.166;2024-03-08T08:47:35;101165.06;;;13.25;32.62
34124;BME280;13153;52.316;21.166;2024-03-08T08:50:02;101149.97;;;13.21;33.05
34124;BME280;13153;52.316;21.166;2024-03-08T08:52:29;101152.66;;;13.23;33.13
34124;BME280;13153;52.316;21.166;2024-03-08T08:54:55;101154.47;;;12.95;32.61
34124;BME280;13153;52.316;21.166;2024-03-08T08:57:22;101143.72;;;12.89;32.69
34124;BME280;13153;52.316;21.166;2024-03-08T08:59:47;101147.78;;;12.78;32.69
34124;BME280;13153;52.316;21.166;2024-03-08T09:02:13;101145.84;;;12.71;33.11
34124;BME280;13153;52.316;21.166;2024-03-08T09:04:40;101143.50;;;12.51;33.21
34124;BME280;13153;52.316;21.166;2024-03-08T09:07:05;101145.91;;;12.74;33.90
34124;BME280;13153;52.316;21.166;2024-03-08T09:09:34;101141.47;;;13.03;33.76
34124;BME280;13153;52.316;21.166;2024-03-08T09:12:00;101143.84;;;12.94;33.47
34124;BME280;13153;52.316;21.166;2024-03-08T09:14:26;101153.59;;;12.65;33.58
34124;BME280;13153;52.316;21.166;2024-03-08T09:16:52;101154.44;;;12.64;34.19
34124;BME280;13153;52.316;21.166;2024-03-08T09:19:18;101140.53;;;12.69;34.64
34124;BME280;13153;52.316;21.166;2024-03-08T09:21:45;101145.84;;;12.71;33.53
34124;BME280;13153;52.316;21.166;2024-03-08T09:24:11;101137.94;;;12.72;33.68
34124;BME280;13153;52.316;21.166;2024-03-08T09:26:38;101141.44;;;12.71;33.06
34124;BME280;13153;52.316;21.166;2024-03-08T09:29:03;101129.25;;;12.76;33.02
34124;BME280;13153;52.316;21.166;2024-03-08T09:31:32;101132.56;;;12.99;33.23
34124;BME280;13153;52.316;21.166;2024-03-08T09:33:58;101137.81;;;13.28;32.90
34124;BME280;13153;52.316;21.166;2024-03-08T09:36:23;101127.03;;;13.20;32.16
34124;BME280;13153;52.316;21.166;2024-03-08T09:38:50;101129.84;;;13.26;32.02
34124;BME280;13153;52.316;21.166;2024-03-08T09:41:16;101122.56;;;13.50;32.56
34124;BME280;13153;52.316;21.166;2024-03-08T09:43:43;101120.81;;;13.18;32.16
34124;BME280;13153;52.316;21.166;2024-03-08T09:46:10;101127.56;;;12.78;32.42
34124;BME280;13153;52.316;21.166;2024-03-08T09:48:37;101119.97;;;12.59;32.73
34124;BME280;13153;52.316;21.166;2024-03-08T09:51:04;101121.16;;;12.12;33.63
34124;BME280;13153;52.316;21.166;2024-03-08T09:53:30;101120.97;;;12.06;33.64
34124;BME280;13153;52.316;21.166;2024-03-08T09:55:56;101119.28;;;12.08;32.92
34124;BME280;13153;52.316;21.166;2024-03-08T09:58:22;101109.09;;;12.48;33.11
34124;BME280;13153;52.316;21.166;2024-03-08T10:01:03;101120.66;;;12.25;32.88
34124;BME280;13153;52.316;21.166;2024-03-08T10:03:30;101111.91;;;12.26;33.49
34124;BME280;13153;52.316;21.166;2024-03-08T10:05:58;101113.50;;;12.49;33.16
34124;BME280;13153;52.316;21.166;2024-03-08T10:08:29;101109.47;;;12.61;33.18
34124;BME280;13153;52.316;21.166;2024-03-08T10:10:56;101112.31;;;12.68;33.47
34124;BME280;13153;52.316;21.166;2024-03-08T10:13:26;101104.41;;;12.68;32.62
34124;BME280;13153;52.316;21.166;2024-03-08T10:15:55;101099.41;;;12.79;33.42
34124;BME280;13153;52.316;21.166;2024-03-08T10:18:21;101103.31;;;12.62;33.40
34124;BME280;13153;52.316;21.166;2024-03-08T10:21:05;101102.00;;;12.47;32.81
34124;BME280;13153;52.316;21.166;2024-03-08T10:23:33;101107.91;;;12.67;33.37
34124;BME280;13153;52.316;21.166;2024-03-08T10:26:17;101100.44;;;12.84;33.02
34124;BME280;13153;52.316;21.166;2024-03-08T10:28:48;101094.88;;;13.05;33.13
34124;BME280;13153;52.316;21.166;2024-03-08T10:31:18;101095.41;;;13.23;32.35
34124;BME280;13153;52.316;21.166;2024-03-08T10:33:45;101090.03;;;12.90;31.78
34124;BME280;13153;52.316;21.166;2024-03-08T10:36:13;101090.31;;;12.99;32.59
34124;BME280;13153;52.316;21.166;2024-03-08T10:38:42;101099.75;;;12.60;32.54
34124;BME280;13153;52.316;21.166;2024-03-08T10:41:12;101093.78;;;12.67;32.78
34124;BME280;13153;52.316;21.166;2024-03-08T10:47:35;101088.34;;;12.92;32.56
34124;BME280;13153;52.316;21.166;2024-03-08T10:49:54;101086.31;;;12.52;32.97
34124;BME280;13153;52.316;21.166;2024-03-08T10:52:21;101084.00;;;12.63;33.03
34124;BME280;13153;52.316;21.166;2024-03-08T10:54:48;101085.03;;;12.68;32.78
34124;BME280;13153;52.316;21.166;2024-03-08T10:57:18;101075.47;;;12.73;32.43
34124;BME280;13153;52.316;21.166;2024-03-08T10:59:49;101077.66;;;12.87;32.73
34124;BME280;13153;52.316;21.166;2024-03-08T11:02:17;101073.16;;;12.85;32.66
34124;BME280;13153;52.316;21.166;2024-03-08T11:04:50;101077.81;;;12.62;32.42
34124;BME280;13153;52.316;21.166;2024-03-08T11:07:16;101075.88;;;12.27;32.89
34124;BME280;13153;52.316;21.166;2024-03-08T11:09:48;101072.28;;;12.24;33.02
34124;BME280;13153;52.316;21.166;2024-03-08T11:12:36;101069.03;;;12.33;33.15
34124;BME280;13153;52.316;21.166;2024-03-08T11:15:11;101067.50;;;12.41;33.46
34124;BME280;13153;52.316;21.166;2024-03-08T11:20:12;101066.94;;;12.51;33.01
34124;BME280;13153;52.316;21.166;2024-03-08T11:22:54;101069.84;;;12.61;32.75
34124;BME280;13153;52.316;21.166;2024-03-08T11:25:40;101059.19;;;12.57;33.22
34124;BME280;13153;52.316;21.166;2024-03-08T11:28:14;101063.84;;;12.66;32.84
34124;BME280;13153;52.316;21.166;2024-03-08T11:33:28;101052.91;;;12.84;33.03
34124;BME280;13153;52.316;21.166;2024-03-08T11:36:34;101049.91;;;12.72;31.92
34124;BME280;13153;52.316;21.166;2024-03-08T11:39:02;101052.03;;;12.53;32.41
34124;BME280;13153;52.316;21.166;2024-03-08T11:41:35;101047.25;;;12.40;32.31
34124;BME280;13153;52.316;21.166;2024-03-08T11:44:05;101048.19;;;12.42;32.62
34124;BME280;13153;52.316;21.166;2024-03-08T11:46:31;101036.28;;;12.27;32.71
34124;BME280;13153;52.316;21.166;2024-03-08T11:48:57;101039.94;;;12.32;33.39
34124;BME280;13153;52.316;21.166;2024-03-08T11:51:23;101032.16;;;12.36;32.59
34124;BME280;13153;52.316;21.166;2024-03-08T11:53:50;101034.00;;;12.39;32.81
34124;BME280;13153;52.316;21.166;2024-03-08T11:56:16;101032.97;;;12.34;32.75
34124;BME280;13153;52.316;21.166;2024-03-08T11:58:52;101026.09;;;12.09;33.21
34124;BME280;13153;52.316;21.166;2024-03-08T12:01:18;101030.00;;;12.23;33.08
34124;BME280;13153;52.316;21.166;2024-03-08T12:03:52;101028.47;;;12.30;32.49
34124;BME280;13153;52.316;21.166;2024-03-08T12:06:18;101021.16;;;12.21;32.43
34124;BME280;13153;52.316;21.166;2024-03-08T12:08:46;101017.91;;;12.30;32.29
34124;BME280;13153;52.316;21.166;2024-03-08T12:11:14;101008.56;;;12.11;32.61
34124;BME280;13153;52.316;21.166;2024-03-08T12:13:41;101009.72;;;12.20;32.70
34124;BME280;13153;52.316;21.166;2024-03-08T12:16:09;101010.66;;;12.22;32.65
34124;BME280;13153;52.316;21.166;2024-03-08T12:18:38;101007.47;;;12.34;33.17
34124;BME280;13153;52.316;21.166;2024-03-08T12:21:12;101004.34;;;12.47;33.68
34124;BME280;13153;52.316;21.166;2024-03-08T12:23:40;100997.59;;;12.57;33.57
34124;BME280;13153;52.316;21.166;2024-03-08T12:26:24;100990.81;;;12.67;33.41
34124;BME280;13153;52.316;21.166;2024-03-08T12:28:52;100989.00;;;12.64;33.15
34124;BME280;13153;52.316;21.166;2024-03-08T12:31:19;100989.25;;;12.75;33.05
34124;BME280;13153;52.316;21.166;2024-03-08T12:33:52;100992.72;;;12.72;32.90
34124;BME280;13153;52.316;21.166;2024-03-08T12:36:20;100977.94;;;12.79;32.63
34124;BME280;13153;52.316;21.166;2024-03-08T12:38:47;100990.38;;;12.83;33.42
34124;BME280;13153;52.316;21.166;2024-03-08T12:41:17;100984.03;;;12.76;32.16
34124;BME280;13153;52.316;21.166;2024-03-08T12:43:47;100971.50;;;12.68;32.13
34124;BME280;13153;52.316;21.166;2024-03-08T12:46:19;100975.78;;;12.64;32.38
34124;BME280;13153;52.316;21.166;2024-03-08T12:48:46;100977.41;;;12.59;32.34
34124;BME280;13153;52.316;21.166;2024-03-08T12:51:20;100970.44;;;12.61;32.14
34124;BME280;13153;52.316;21.166;2024-03-08T12:53:47;100965.22;;;12.64;32.52
34124;BME280;13153;52.316;21.166;2024-03-08T12:56:20;100957.34;;;12.66;32.31